Time;durP1;ratioP1;P1;durP2;ratioP2;P2;SDS_P1;SDS_P2;PMS_P1;PMS_P2;Temp;Humidity;BMP_temperature;BMP_pressure;BME280_temperature;BME280_humidity;BME280_pressure;Samples;Min_cycle;Max_cycle;Signal;HPM_P1;HPM_P2
2022/10/27 00:01:45;;;;;;;8.05;3.88;;;;;;;26.65;43.46;102131.66;5049843;28;20098;-73
2022/10/27 00:04:10;;;;;;;12.57;4.45;;;;;;;25.91;45.53;102139.28;5050430;28;20469;-73
2022/10/27 00:06:36;;;;;;;10.90;4.22;;;;;;;25.99;44.80;102125.47;5050520;28;20716;-72
2022/10/27 00:09:02;;;;;;;10.60;4.97;;;;;;;25.97;45.15;102122.03;5049591;28;20451;-72
2022/10/27 00:11:27;;;;;;;14.73;4.82;;;;;;;26.36;44.59;102128.81;5050237;28;20124;-73
2022/10/27 00:13:52;;;;;;;11.02;4.80;;;;;;;26.45;43.66;102125.63;5049987;28;20052;-73
2022/10/27 00:16:18;;;;;;;9.15;4.68;;;;;;;26.00;44.77;102127.22;5049450;28;20021;-73
2022/10/27 00:18:44;;;;;;;12.15;4.43;;;;;;;25.59;45.90;102128.50;5050244;28;20094;-73
2022/10/27 00:21:12;;;;;;;14.48;5.38;;;;;;;25.82;44.98;102129.94;5051648;28;20032;-73
2022/10/27 00:23:38;;;;;;;11.45;5.00;;;;;;;26.02;44.54;102128.91;5050565;28;20473;-73
2022/10/27 00:26:06;;;;;;;10.85;5.18;;;;;;;26.03;44.30;102127.06;5051602;28;20195;-73
2022/10/27 00:28:32;;;;;;;11.10;4.90;;;;;;;25.62;45.27;102132.84;5051595;28;20488;-72
2022/10/27 00:31:02;;;;;;;11.70;5.00;;;;;;;26.26;43.82;102130.31;5050744;28;20057;-72
2022/10/27 00:33:29;;;;;;;7.88;5.10;;;;;;;25.60;45.05;102134.75;5050248;28;20036;-72
2022/10/27 00:35:54;;;;;;;9.90;5.07;;;;;;;24.99;46.27;102140.50;5050307;28;20059;-72
2022/10/27 00:38:23;;;;;;;14.60;5.60;;;;;;;25.95;43.87;102135.50;5049090;28;20489;-72
2022/10/27 00:40:49;;;;;;;13.52;5.22;;;;;;;25.37;45.24;102142.16;5051693;28;20354;-72
2022/10/27 00:43:32;;;;;;;13.13;5.95;;;;;;;25.51;45.14;102136.06;5050104;28;20039;-72
2022/10/27 00:46:04;;;;;;;13.55;6.10;;;;;;;24.73;46.87;102149.81;5050170;28;20040;-73
2022/10/27 00:48:31;;;;;;;10.55;5.53;;;;;;;25.17;45.84;102146.72;5050100;28;20029;-72
2022/10/27 00:51:01;;;;;;;13.05;5.53;;;;;;;25.28;45.07;102153.28;5050682;28;20493;-73
2022/10/27 00:53:27;;;;;;;12.73;5.32;;;;;;;24.52;47.43;102147.22;5049788;28;20076;-73
2022/10/27 00:55:53;;;;;;;11.43;5.70;;;;;;;24.79;46.47;102149.50;5050161;28;20063;-73
2022/10/27 00:58:20;;;;;;;9.32;5.47;;;;;;;24.79;46.17;102154.84;5050710;28;20025;-72
2022/10/27 01:00:45;;;;;;;10.95;5.53;;;;;;;24.82;45.85;102159.19;5050039;28;20419;-72
2022/10/27 01:03:15;;;;;;;9.32;5.38;;;;;;;24.53;46.71;102154.25;5049940;28;20078;-72
2022/10/27 01:05:42;;;;;;;12.77;5.60;;;;;;;24.36;47.28;102144.41;5049389;28;20166;-73
2022/10/27 01:08:07;;;;;;;11.43;5.57;;;;;;;24.22;47.58;102149.50;5049772;28;20052;-72
2022/10/27 01:10:33;;;;;;;11.27;5.70;;;;;;;24.92;45.77;102148.88;5049787;28;20148;-73
2022/10/27 01:12:59;;;;;;;10.18;5.72;;;;;;;24.50;46.41;102159.78;5049167;28;20021;-73
2022/10/27 01:15:51;;;;;;;14.10;6.25;;;;;;;24.90;45.57;102163.19;5049561;28;20021;-72
2022/10/27 01:18:59;;;;;;;10.23;6.07;;;;;;;24.45;46.44;102151.09;5049757;28;20025;-72
2022/10/27 01:21:46;;;;;;;14.70;5.63;;;;;;;24.72;46.14;102154.28;5049863;28;20024;-72
2022/10/27 01:24:40;;;;;;;8.75;5.60;;;;;;;24.35;46.65;102155.16;5049446;28;20029;-73
2022/10/27 01:27:37;;;;;;;13.02;6.55;;;;;;;25.14;44.78;102146.88;5050533;28;20032;-72
2022/10/27 01:30:08;;;;;;;16.30;5.70;;;;;;;24.36;46.27;102151.56;5053264;28;20514;-72
2022/10/27 01:32:40;;;;;;;11.02;6.03;;;;;;;24.25;47.68;102148.50;5053194;28;20021;-73
2022/10/27 01:35:27;;;;;;;13.50;5.78;;;;;;;24.18;47.34;102148.81;5053271;28;20086;-73
2022/10/27 01:38:09;;;;;;;10.32;6.00;;;;;;;24.04;47.66;102148.56;5052953;28;20064;-73
2022/10/27 01:40:42;;;;;;;11.40;6.00;;;;;;;24.24;47.12;102152.13;5052378;28;20423;-74
2022/10/27 01:43:13;;;;;;;8.27;5.50;;;;;;;24.30;47.02;102154.50;5053054;28;20119;-73
2022/10/27 01:45:41;;;;;;;13.60;5.65;;;;;;;23.72;47.84;102153.56;5054252;28;20037;-73
2022/10/27 01:48:08;;;;;;;11.85;5.68;;;;;;;23.95;48.05;102147.22;5053489;28;20028;-74
2022/10/27 01:50:39;;;;;;;12.23;5.88;;;;;;;23.96;47.80;102146.28;5052836;28;20048;-73
2022/10/27 01:53:04;;;;;;;10.65;5.85;;;;;;;24.20;47.90;102141.56;5052387;28;20492;-72
2022/10/27 01:55:39;;;;;;;11.02;5.75;;;;;;;24.04;47.82;102140.56;5051975;28;20044;-72
2022/10/27 01:58:30;;;;;;;12.90;5.47;;;;;;;24.13;47.45;102133.94;5052710;28;20560;-72
2022/10/27 02:01:14;;;;;;;11.18;5.40;;;;;;;24.09;47.88;102137.69;5051915;28;20021;-73
2022/10/27 02:03:51;;;;;;;8.48;4.95;;;;;;;24.08;47.90;102136.81;5052428;28;20021;-72
2022/10/27 02:06:25;;;;;;;14.25;5.35;;;;;;;23.96;48.01;102137.38;5052598;28;20051;-72
2022/10/27 02:08:58;;;;;;;12.68;5.35;;;;;;;24.48;46.97;102134.06;5051940;28;20491;-72
2022/10/27 02:11:26;;;;;;;10.52;5.25;;;;;;;24.22;47.40;102129.03;5053709;28;20389;-73
2022/10/27 02:13:53;;;;;;;12.43;5.68;;;;;;;24.52;46.43;102131.19;5052543;28;20485;-72
2022/10/27 02:16:26;;;;;;;14.73;5.68;;;;;;;24.03;47.22;102128.19;5051355;28;20025;-72
2022/10/27 02:18:52;;;;;;;;;;;;;;;24.55;46.30;102125.69;5052811;28;20469;-73
2022/10/27 02:21:19;;;;;;;11.98;4.97;;;;;;;24.31;46.31;102126.88;5052371;28;19984;-73
2022/10/27 02:23:45;;;;;;;14.43;5.40;;;;;;;23.75;48.25;102129.38;5051670;28;20147;-72
2022/10/27 02:26:15;;;;;;;10.32;5.85;;;;;;;23.98;48.33;102119.50;5053698;28;20128;-73
2022/10/27 02:28:49;;;;;;;15.10;5.22;;;;;;;24.16;47.67;102117.78;5052079;28;20049;-72
2022/10/27 02:31:16;;;;;;;10.57;5.40;;;;;;;24.26;46.88;102112.84;5051233;28;20029;-72
2022/10/27 02:33:43;;;;;;;9.27;5.28;;;;;;;24.07;47.14;102118.19;5053512;28;20056;-73
2022/10/27 02:36:09;;;;;;;9.85;5.35;;;;;;;23.79;48.16;102125.63;5051260;28;20452;-73
2022/10/27 02:38:34;;;;;;;13.52;5.32;;;;;;;24.02;47.72;102121.94;5052603;28;20056;-73
2022/10/27 02:40:59;;;;;;;9.45;4.72;;;;;;;24.03;47.58;102122.84;5068638;28;20021;-73
2022/10/27 02:43:25;;;;;;;10.18;5.22;;;;;;;23.29;49.40;102118.09;5052345;28;20103;-73
2022/10/27 02:45:50;;;;;;;12.65;5.20;;;;;;;23.63;48.65;102105.91;5051879;28;20020;-72
2022/10/27 02:48:15;;;;;;;14.70;5.95;;;;;;;23.74;48.18;102103.66;5053051;28;20036;-73
2022/10/27 02:50:41;;;;;;;10.13;5.30;;;;;;;23.05;49.98;102115.50;5050920;28;20513;-72
2022/10/27 02:53:06;;;;;;;12.45;5.22;;;;;;;23.24;49.04;102101.44;5051405;28;20404;-72
2022/10/27 02:55:31;;;;;;;13.80;5.47;;;;;;;23.62;48.63;102106.88;5051769;28;20029;-73
2022/10/27 02:57:57;;;;;;;15.40;5.20;;;;;;;22.97;50.38;102098.97;5050898;28;20048;-73
2022/10/27 03:00:22;;;;;;;14.75;5.10;;;;;;;23.15;49.61;102094.69;5068120;28;20025;-72
2022/10/27 03:02:48;;;;;;;13.77;5.47;;;;;;;23.36;49.17;102095.56;5051570;28;20104;-73
2022/10/27 03:05:14;;;;;;;10.50;4.72;;;;;;;23.73;48.50;102104.59;5050876;28;20500;-72
2022/10/27 03:07:39;;;;;;;7.35;4.68;;;;;;;23.57;48.31;102107.06;5051415;28;20025;-72
2022/10/27 03:10:05;;;;;;;9.18;5.05;;;;;;;23.92;47.38;102104.63;5051272;28;20116;-73
2022/10/27 03:12:30;;;;;;;7.90;4.32;;;;;;;23.49;48.45;102096.75;5050210;28;20056;-73
2022/10/27 03:14:56;;;;;;;8.52;4.47;;;;;;;23.97;47.50;102105.25;5052748;28;20017;-73
2022/10/27 03:17:21;;;;;;;10.25;4.40;;;;;;;23.98;47.09;102098.13;5051239;28;20107;-73
2022/10/27 03:19:46;;;;;;;8.15;4.18;;;;;;;24.12;46.65;102101.00;5050606;28;20396;-73
2022/10/27 03:22:12;;;;;;;5.82;4.20;;;;;;;23.71;47.52;102095.75;5050993;28;20021;-73
2022/10/27 03:24:37;;;;;;;8.05;4.68;;;;;;;24.28;46.55;102098.47;5051005;28;20123;-72
2022/10/27 03:27:02;;;;;;;14.77;4.47;;;;;;;24.15;46.32;102095.53;5051624;28;20107;-73
2022/10/27 03:29:28;;;;;;;7.28;4.47;;;;;;;23.87;46.79;102096.78;5067591;28;20025;-73
2022/10/27 03:31:53;;;;;;;9.25;4.88;;;;;;;23.55;48.10;102096.47;5050942;28;20021;-73
2022/10/27 03:34:19;;;;;;;12.50;5.15;;;;;;;23.91;47.72;102094.88;5050382;28;20116;-73
2022/10/27 03:36:44;;;;;;;7.22;3.95;;;;;;;23.83;47.24;102095.19;5050995;28;20025;-73
2022/10/27 03:39:09;;;;;;;8.40;4.22;;;;;;;24.24;46.28;102093.38;5067485;28;20052;-73
2022/10/27 03:41:35;;;;;;;11.77;4.70;;;;;;;23.29;48.42;102094.09;5050003;28;20017;-73
2022/10/27 03:44:00;;;;;;;7.78;4.05;;;;;;;23.75;47.52;102108.03;5052146;28;20029;-73
2022/10/27 03:46:25;;;;;;;11.60;5.32;;;;;;;23.27;49.06;102103.97;5050099;28;20070;-73
2022/10/27 03:48:53;;;;;;;9.65;4.38;;;;;;;23.74;47.13;102108.09;5051614;28;20021;-73
2022/10/27 03:51:18;;;;;;;11.52;4.88;;;;;;;24.06;46.89;102109.31;5050197;28;20025;-73
2022/10/27 03:53:43;;;;;;;8.98;4.80;;;;;;;22.90;49.36;102113.50;5051029;28;20049;-73
2022/10/27 03:56:12;;;;;;;12.00;5.03;;;;;;;23.92;46.90;102103.75;5050485;28;20017;-73
2022/10/27 03:58:37;;;;;;;7.60;4.38;;;;;;;23.61;47.26;102111.31;5050624;28;20469;-73
2022/10/27 04:01:04;;;;;;;8.55;4.35;;;;;;;23.15;48.31;102119.56;5049873;28;20033;-72
2022/10/27 04:03:30;;;;;;;8.32;3.92;;;;;;;23.41;48.08;102104.22;5050385;28;20021;-73
2022/10/27 04:05:56;;;;;;;10.10;4.47;;;;;;;23.87;47.29;102117.28;5050427;28;20032;-73
2022/10/27 04:08:22;;;;;;;9.20;4.53;;;;;;;23.31;48.50;102117.06;5051229;28;20110;-72
2022/10/27 04:10:47;;;;;;;9.05;4.97;;;;;;;23.70;47.16;102123.41;5050044;28;20480;-73
2022/10/27 04:13:12;;;;;;;12.70;4.38;;;;;;;23.33;48.05;102119.72;5050396;28;20025;-73
2022/10/27 04:15:38;;;;;;;11.35;4.40;;;;;;;23.91;47.18;102123.41;5050989;28;20569;-73
2022/10/27 04:18:04;;;;;;;11.55;4.60;;;;;;;23.95;46.57;102125.00;5050086;28;20045;-73
2022/10/27 04:20:29;;;;;;;7.15;4.47;;;;;;;23.59;47.64;102128.34;5050218;28;20469;-73
2022/10/27 04:22:56;;;;;;;7.20;4.07;;;;;;;23.91;46.97;102134.94;5049918;28;20060;-73
2022/10/27 04:25:22;;;;;;;10.63;4.80;;;;;;;23.66;47.36;102135.16;5051613;28;20028;-73
2022/10/27 04:27:48;;;;;;;10.05;4.93;;;;;;;23.71;47.11;102133.13;5051469;28;20484;-73
2022/10/27 04:30:13;;;;;;;10.80;4.88;;;;;;;23.60;47.72;102124.75;5049477;28;20115;-73
2022/10/27 04:32:38;;;;;;;11.15;4.15;;;;;;;23.54;48.01;102129.41;5050149;28;20473;-73
2022/10/27 04:35:07;;;;;;;6.25;3.85;;;;;;;24.07;46.67;102124.41;5050259;28;20033;-73
2022/10/27 04:37:33;;;;;;;12.15;4.43;;;;;;;23.47;47.80;102127.97;5049442;28;20054;-73
2022/10/27 04:39:59;;;;;;;13.15;5.10;;;;;;;23.59;47.22;102123.88;5049945;28;20032;-72
2022/10/27 04:42:25;;;;;;;10.18;4.50;;;;;;;23.72;46.84;102125.03;5049855;28;20025;-73
2022/10/27 04:44:50;;;;;;;7.40;4.18;;;;;;;23.62;47.71;102126.41;5049369;28;20105;-73
2022/10/27 04:47:16;;;;;;;10.23;4.40;;;;;;;23.43;48.18;102122.84;5051386;28;20508;-73
2022/10/27 04:49:41;;;;;;;11.13;3.72;;;;;;;24.24;45.68;102130.78;5049489;28;20025;-72
2022/10/27 04:52:06;;;;;;;8.55;3.85;;;;;;;23.30;47.76;102114.47;5051287;28;20029;-73
2022/10/27 04:54:32;;;;;;;8.02;4.05;;;;;;;23.96;46.58;102124.91;5066282;28;20045;-73
2022/10/27 04:56:57;;;;;;;9.32;4.72;;;;;;;24.07;46.26;102112.84;5050523;28;20158;-73
2022/10/27 04:59:22;;;;;;;8.35;4.05;;;;;;;24.51;45.06;102113.41;5051131;28;20082;-73
2022/10/27 05:01:48;;;;;;;7.65;3.33;;;;;;;24.39;45.24;102119.34;5052527;28;20087;-73
2022/10/27 05:04:13;;;;;;;6.75;3.75;;;;;;;23.98;45.80;102115.00;5069776;28;20025;-73
2022/10/27 05:06:38;;;;;;;10.48;4.13;;;;;;;24.32;45.67;102118.78;5055047;28;20557;-73
2022/10/27 05:09:04;;;;;;;7.70;3.78;;;;;;;23.90;46.18;102111.84;5053254;28;20405;-73
2022/10/27 05:11:29;;;;;;;9.73;3.80;;;;;;;23.91;46.11;102112.72;5069293;28;20401;-73
2022/10/27 05:13:54;;;;;;;9.30;4.47;;;;;;;24.19;46.24;102107.81;5053504;28;20473;-73
2022/10/27 05:16:20;;;;;;;9.02;3.92;;;;;;;23.64;47.33;102094.31;5053285;28;20032;-73
2022/10/27 05:18:45;;;;;;;9.43;3.97;;;;;;;23.88;46.49;102103.91;5052781;28;20035;-73
2022/10/27 05:21:10;;;;;;;10.05;3.85;;;;;;;23.31;47.18;102095.75;5054690;28;20108;-73
2022/10/27 05:23:36;;;;;;;9.35;3.92;;;;;;;23.76;46.50;102109.78;5053194;28;20024;-73
2022/10/27 05:26:01;;;;;;;7.32;3.72;;;;;;;23.86;46.14;102107.53;5052595;28;20029;-72
2022/10/27 05:28:27;;;;;;;6.57;3.78;;;;;;;24.07;45.59;102100.38;5054366;28;20025;-73
2022/10/27 05:30:59;;;;;;;6.35;3.25;;;;;;;23.49;46.67;102095.88;5053274;28;20024;-73
2022/10/27 05:33:26;;;;;;;10.15;3.60;;;;;;;23.53;46.46;102103.69;5052725;28;20124;-73
2022/10/27 05:35:51;;;;;;;11.80;3.38;;;;;;;23.78;45.67;102097.22;5054625;28;20029;-73
2022/10/27 05:38:17;;;;;;;7.05;3.42;;;;;;;23.51;46.61;102100.19;5053142;28;20028;-72
2022/10/27 05:40:43;;;;;;;6.90;3.58;;;;;;;23.40;46.73;102099.81;5053536;28;20073;-73
2022/10/27 05:43:08;;;;;;;7.72;3.50;;;;;;;23.81;46.18;102098.88;5053002;28;20021;-73
2022/10/27 05:45:34;;;;;;;9.60;3.70;;;;;;;23.78;45.91;102099.03;5053113;28;20029;-73
2022/10/27 05:48:04;;;;;;;6.75;3.60;;;;;;;24.13;45.32;102096.56;5052191;28;20067;-73
2022/10/27 05:50:31;;;;;;;6.40;3.00;;;;;;;24.33;44.84;102090.25;5052870;28;20131;-73
2022/10/27 05:52:56;;;;;;;7.88;2.85;;;;;;;24.52;44.14;102099.09;5051927;28;20091;-73
2022/10/27 05:55:23;;;;;;;6.38;2.65;;;;;;;24.53;44.66;102084.78;5052624;28;20029;-72
2022/10/27 05:57:56;;;;;;;7.25;3.05;;;;;;;23.92;45.78;102087.72;5054086;28;20082;-72
2022/10/27 06:00:23;;;;;;;5.90;3.28;;;;;;;23.79;45.37;102087.41;5052098;28;20027;-73
2022/10/27 06:02:49;;;;;;;6.10;2.80;;;;;;;24.56;44.29;102079.31;5052492;28;20021;-73
2022/10/27 06:05:14;;;;;;;9.68;3.05;;;;;;;23.38;46.44;102083.00;5052754;28;20516;-72
2022/10/27 06:07:40;;;;;;;9.40;3.03;;;;;;;23.69;45.91;102081.63;5051795;28;20048;-72
2022/10/27 06:10:05;;;;;;;8.40;3.25;;;;;;;23.31;47.01;102070.88;5052407;28;20056;-73
2022/10/27 06:12:31;;;;;;;8.85;3.70;;;;;;;22.60;48.14;102079.19;5051512;28;20057;-73
2022/10/27 06:14:56;;;;;;;8.45;4.05;;;;;;;23.44;47.04;102071.19;5053019;28;20408;-73
2022/10/27 06:17:21;;;;;;;8.57;3.67;;;;;;;22.83;48.00;102073.78;5052372;28;20029;-73
2022/10/27 06:19:47;;;;;;;11.63;4.30;;;;;;;23.33;47.06;102063.69;5052407;28;20021;-73
2022/10/27 06:22:12;;;;;;;8.90;3.85;;;;;;;23.33;46.56;102069.03;5051671;28;20126;-73
2022/10/27 06:24:37;;;;;;;6.95;3.60;;;;;;;22.98;47.08;102063.38;5052039;28;20031;-73
2022/10/27 06:27:03;;;;;;;8.30;3.50;;;;;;;23.63;45.75;102065.88;5069059;28;20040;-73
2022/10/27 06:29:28;;;;;;;7.97;4.20;;;;;;;23.04;47.04;102063.13;5051472;28;20025;-73
2022/10/27 06:31:53;;;;;;;10.75;3.83;;;;;;;22.48;48.77;102060.13;5052112;28;20496;-73
2022/10/27 06:34:19;;;;;;;8.52;4.18;;;;;;;23.11;47.24;102055.72;5051863;28;20480;-73
2022/10/27 06:36:44;;;;;;;9.27;4.45;;;;;;;22.87;47.92;102056.72;5052658;28;20035;-73
2022/10/27 06:39:09;;;;;;;7.93;3.88;;;;;;;23.54;46.21;102056.50;5053350;28;20032;-73
2022/10/27 06:41:35;;;;;;;8.57;4.18;;;;;;;22.49;48.73;102051.19;5068475;28;20013;-73
2022/10/27 06:44:00;;;;;;;12.88;3.85;;;;;;;22.86;47.74;102047.00;5051076;28;20025;-73
2022/10/27 06:46:25;;;;;;;8.48;4.22;;;;;;;23.37;46.74;102043.94;5051878;28;20767;-73
2022/10/27 06:48:51;;;;;;;12.07;3.95;;;;;;;22.96;47.91;102038.59;5052947;28;20024;-73
2022/10/27 06:51:16;;;;;;;8.52;4.00;;;;;;;23.26;46.80;102046.22;5052668;28;20033;-73
2022/10/27 06:53:42;;;;;;;10.75;3.55;;;;;;;22.70;48.27;102048.56;5051603;28;20416;-72
2022/10/27 06:56:07;;;;;;;7.00;3.33;;;;;;;22.56;48.44;102046.50;5051571;28;20025;-72
2022/10/27 06:58:38;;;;;;;8.70;3.58;;;;;;;23.19;46.98;102051.81;5052363;28;20031;-73
2022/10/27 07:01:03;;;;;;;8.02;4.13;;;;;;;23.31;46.58;102044.22;5052951;28;20032;-73
2022/10/27 07:03:30;;;;;;;9.15;3.00;;;;;;;22.87;46.99;102040.75;5052022;28;20017;-73
2022/10/27 07:05:57;;;;;;;6.80;3.47;;;;;;;23.26;46.78;102051.53;5052665;28;20017;-73
2022/10/27 07:08:22;;;;;;;6.43;3.25;;;;;;;22.43;48.29;102056.75;5051545;28;20039;-73
2022/10/27 07:10:47;;;;;;;6.50;3.47;;;;;;;23.25;46.63;102055.16;5050397;28;20025;-73
2022/10/27 07:13:13;;;;;;;9.20;3.75;;;;;;;22.98;47.09;102052.72;5052478;28;20029;-73
2022/10/27 07:15:38;;;;;;;12.75;3.67;;;;;;;23.33;46.29;102058.34;5051296;28;20020;-73
2022/10/27 07:18:07;;;;;;;8.93;3.75;;;;;;;23.59;45.04;102058.97;5050706;28;20017;-73
2022/10/27 07:20:34;;;;;;;6.32;3.53;;;;;;;22.90;47.24;102054.84;5051192;28;20032;-72
2022/10/27 07:23:00;;;;;;;6.68;3.60;;;;;;;22.90;46.73;102049.53;5051069;28;20108;-73
2022/10/27 07:25:26;;;;;;;8.50;3.70;;;;;;;22.43;48.12;102055.91;5066835;28;20112;-73
2022/10/27 07:27:55;;;;;;;8.05;4.00;;;;;;;22.70;47.41;102044.09;5051228;28;20036;-73
2022/10/27 07:30:22;;;;;;;5.65;3.55;;;;;;;21.74;49.66;102051.47;5051015;28;20021;-73
2022/10/27 07:32:48;;;;;;;7.20;3.28;;;;;;;23.14;46.91;102048.50;5049884;28;20029;-72
2022/10/27 07:35:14;;;;;;;9.25;4.75;;;;;;;22.85;47.80;102053.25;5052254;28;20029;-73
2022/10/27 07:37:44;;;;;;;5.20;3.25;;;;;;;22.04;50.27;102057.41;5050870;28;20162;-73
2022/10/27 07:40:11;;;;;;;8.70;3.45;;;;;;;22.36;48.28;102055.28;5050331;28;20495;-73
2022/10/27 07:42:43;;;;;;;8.23;3.30;;;;;;;23.02;47.71;102055.19;5050859;28;20025;-73
2022/10/27 07:45:09;;;;;;;9.83;3.00;;;;;;;23.24;46.22;102056.09;5050662;28;20029;-73
2022/10/27 07:47:34;;;;;;;5.30;2.67;;;;;;;23.07;47.12;102055.00;5050321;28;20028;-73
2022/10/27 07:49:59;;;;;;;5.18;2.80;;;;;;;23.33;46.40;102053.03;5050878;28;20595;-73
2022/10/27 07:52:25;;;;;;;6.70;2.70;;;;;;;23.50;46.26;102045.09;5051745;28;20448;-74
2022/10/27 07:54:51;;;;;;;5.55;2.33;;;;;;;23.11;47.69;102048.59;5050494;28;20052;-73
2022/10/27 07:57:16;;;;;;;7.50;2.45;;;;;;;23.24;47.58;102042.75;5050516;28;20094;-73
2022/10/27 07:59:42;;;;;;;5.88;2.20;;;;;;;22.94;47.97;102041.31;5050049;28;20115;-73
2022/10/27 08:02:10;;;;;;;6.35;1.95;;;;;;;23.34;47.05;102044.06;5050474;28;20417;-73
2022/10/27 08:04:35;;;;;;;5.38;2.17;;;;;;;24.15;45.40;102047.47;5050284;28;20029;-73
2022/10/27 08:07:01;;;;;;;7.95;2.58;;;;;;;24.06;45.72;102031.88;5049939;28;20120;-73
2022/10/27 08:09:26;;;;;;;8.70;2.17;;;;;;;24.01;45.66;102028.56;5051813;28;20092;-73
2022/10/27 08:11:51;;;;;;;11.68;2.75;;;;;;;22.48;48.44;102022.81;5050463;28;20036;-72
2022/10/27 08:14:16;;;;;;;11.80;2.42;;;;;;;22.81;47.83;102033.00;5049712;28;20063;-72
2022/10/27 08:16:42;;;;;;;4.13;1.98;;;;;;;23.95;45.19;102028.88;5050338;28;20067;-73
2022/10/27 08:19:07;;;;;;;5.93;1.83;;;;;;;23.76;45.42;102034.19;5051376;28;20032;-72
2022/10/27 08:21:33;;;;;;;7.40;2.65;;;;;;;24.97;43.62;102022.03;5049822;28;20033;-72
2022/10/27 08:23:58;;;;;;;6.68;2.05;;;;;;;25.22;43.44;102032.31;5066943;28;20028;-72
2022/10/27 08:26:23;;;;;;;3.85;1.67;;;;;;;25.12;43.84;102031.06;5050356;28;20115;-72
2022/10/27 08:28:49;;;;;;;6.05;2.17;;;;;;;24.82;43.59;102031.69;5049666;28;20021;-72
2022/10/27 08:31:15;;;;;;;2.88;1.65;;;;;;;25.35;42.73;102029.00;5051771;28;20392;-72
2022/10/27 08:33:40;;;;;;;5.70;2.00;;;;;;;24.96;43.73;102028.31;5050296;28;20031;-72
2022/10/27 08:36:06;;;;;;;3.58;1.67;;;;;;;24.70;44.50;102037.66;5067870;28;20530;-73
2022/10/27 08:38:32;;;;;;;4.82;2.45;;;;;;;24.53;44.46;102028.66;5056018;28;20132;-72
2022/10/27 08:41:16;;;;;;;5.22;2.08;;;;;;;25.33;43.17;102022.84;5054312;28;20528;-73
2022/10/27 08:43:47;;;;;;;3.92;1.75;;;;;;;26.02;41.69;102018.19;5053385;28;20496;-73
2022/10/27 08:46:28;;;;;;;3.42;1.90;;;;;;;26.09;42.06;102014.25;5053997;28;20029;-72
2022/10/27 08:49:00;;;;;;;9.02;1.35;;;;;;;24.62;43.69;101997.09;5070160;28;20119;-72
2022/10/27 08:51:27;;;;;;;3.78;1.98;;;;;;;25.41;43.39;101996.56;5055434;28;20370;-72
2022/10/27 08:53:54;;;;;;;7.05;1.65;;;;;;;26.00;41.48;101987.94;5055060;28;20060;-72
2022/10/27 08:56:24;;;;;;;3.88;1.50;;;;;;;25.54;41.83;102002.97;5052948;28;20032;-72
2022/10/27 08:58:50;;;;;;;6.25;1.90;;;;;;;26.51;40.16;101999.28;5053973;28;20124;-72
2022/10/27 09:01:18;;;;;;;4.15;2.33;;;;;;;25.47;42.94;101995.34;5070451;28;20116;-72
2022/10/27 09:04:11;;;;;;;4.53;1.13;;;;;;;25.94;41.74;102004.34;5053086;28;20033;-72
2022/10/27 09:06:46;;;;;;;;;;;;;;;25.47;42.09;101996.22;5055547;28;20075;-73
2022/10/27 09:09:26;;;;;;;7.47;2.13;;;;;;;26.14;41.33;101988.03;5053774;28;19912;-72
2022/10/27 09:12:14;;;;;;;3.28;1.60;;;;;;;25.76;41.88;101995.53;5069639;28;20170;-72
2022/10/27 09:15:04;;;;;;;2.58;1.70;;;;;;;25.56;42.09;102001.06;5053522;28;20122;-72
2022/10/27 09:17:52;;;;;;;5.85;2.00;;;;;;;26.08;41.43;101985.72;5052918;28;20120;-72
2022/10/27 09:20:34;;;;;;;2.78;1.35;;;;;;;26.09;41.16;101987.47;5053551;28;20035;-72
2022/10/27 09:23:02;;;;;;;4.68;1.70;;;;;;;24.42;44.19;101980.25;5054555;28;20021;-72
2022/10/27 09:25:29;;;;;;;5.22;2.17;;;;;;;25.82;41.71;101984.50;5052609;28;20021;-72
2022/10/27 09:27:58;;;;;;;2.85;1.50;;;;;;;24.88;43.30;101987.72;5054718;28;20094;-72
2022/10/27 09:30:25;;;;;;;1.83;1.40;;;;;;;25.91;41.01;101997.34;5053479;28;20405;-73
2022/10/27 09:32:54;;;;;;;7.97;1.85;;;;;;;27.11;39.24;101992.16;5052385;28;20022;-72
2022/10/27 09:35:23;;;;;;;9.07;1.73;;;;;;;28.04;38.10;101980.91;5052904;28;20029;-72
2022/10/27 09:37:50;;;;;;;3.90;1.45;;;;;;;27.83;37.64;101978.66;5053119;28;20461;-72
2022/10/27 09:40:18;;;;;;;3.83;1.38;;;;;;;27.73;38.24;101977.53;5069094;28;20191;-72
2022/10/27 09:42:45;;;;;;;5.95;1.40;;;;;;;26.90;39.89;101972.84;5054427;28;20370;-73
2022/10/27 09:45:19;;;;;;;8.00;1.50;;;;;;;27.23;39.14;101967.22;5052132;28;20036;-72
2022/10/27 09:47:49;;;;;;;4.18;1.48;;;;;;;25.93;41.01;101957.97;5051906;28;20122;-73
2022/10/27 09:50:42;;;;;;;4.35;1.27;;;;;;;26.68;40.36;101951.81;5053029;28;20033;-72
2022/10/27 09:53:37;;;;;;;2.90;1.10;;;;;;;27.33;38.85;101953.22;5053567;28;20095;-72
2022/10/27 09:56:03;;;;;;;5.32;1.38;;;;;;;27.20;39.29;101950.44;5052781;28;20037;-72
2022/10/27 09:58:29;;;;;;;5.03;1.42;;;;;;;27.19;38.81;101952.28;5052785;28;20020;-72
2022/10/27 10:00:56;;;;;;;4.82;1.40;;;;;;;26.42;40.59;101943.56;5053360;28;20469;-72
2022/10/27 10:03:22;;;;;;;5.28;1.48;;;;;;;26.68;40.00;101939.28;5069363;28;20540;-72
2022/10/27 10:06:02;;;;;;;4.65;1.85;;;;;;;27.15;39.41;101936.44;5054042;28;20116;-72
2022/10/27 10:08:32;;;;;;;4.93;1.30;;;;;;;26.59;40.16;101940.69;5051900;28;20024;-72
2022/10/27 10:10:58;;;;;;;4.85;1.40;;;;;;;26.99;39.54;101939.25;5053693;28;20472;-72
2022/10/27 10:13:25;;;;;;;4.07;1.58;;;;;;;26.59;40.15;101942.53;5051604;28;20124;-72
2022/10/27 10:16:23;;;;;;;4.03;1.08;;;;;;;26.86;39.58;101940.00;5052496;28;20017;-72
2022/10/27 10:19:12;;;;;;;3.50;1.50;;;;;;;27.21;39.55;101934.25;4999297;28;20029;-73
2022/10/27 10:21:59;;;;;;;4.93;1.40;;;;;;;27.73;38.65;101939.94;5053157;28;20029;-72
2022/10/27 10:24:32;;;;;;;2.67;1.65;;;;;;;26.49;40.23;101942.22;5052267;28;20029;-72
2022/10/27 10:27:00;;;;;;;7.15;1.60;;;;;;;27.39;38.92;101936.75;5052389;28;20029;-72
2022/10/27 10:29:42;;;;;;;7.82;1.33;;;;;;;26.56;40.53;101938.22;5051598;28;20124;-72
2022/10/27 10:32:10;;;;;;;2.85;1.60;;;;;;;27.50;39.44;101941.44;5051828;28;20037;-72
2022/10/27 10:34:36;;;;;;;3.95;1.50;;;;;;;26.62;40.54;101944.16;5052683;28;20024;-72
2022/10/27 10:37:02;;;;;;;4.72;1.50;;;;;;;27.46;39.45;101932.72;5052244;28;20140;-72
2022/10/27 10:39:31;;;;;;;7.35;1.70;;;;;;;28.17;38.14;101927.25;5052052;28;20098;-72
2022/10/27 10:42:08;;;;;;;5.57;1.38;;;;;;;27.72;39.06;101930.16;5051298;28;20057;-72
2022/10/27 10:44:35;;;;;;;6.22;1.48;;;;;;;27.49;39.29;101929.84;5051735;28;20473;-72
2022/10/27 10:47:00;;;;;;;4.15;1.15;;;;;;;27.40;39.46;101922.38;5051932;28;20025;-72
2022/10/27 10:49:39;;;;;;;2.78;1.10;;;;;;;26.56;40.47;101929.31;5052341;28;20433;-72
2022/10/27 10:52:17;;;;;;;4.07;1.33;;;;;;;27.32;40.00;101924.66;5051760;28;20029;-72
2022/10/27 10:54:45;;;;;;;3.85;1.20;;;;;;;28.34;38.33;101915.31;5052724;28;20064;-72
2022/10/27 10:57:39;;;;;;;3.60;1.27;;;;;;;28.06;38.60;101919.91;5067539;28;20021;-72
2022/10/27 11:00:12;;;;;;;4.50;2.13;;;;;;;27.76;38.73;101918.25;5048016;28;20048;-73
2022/10/27 11:02:39;;;;;;;7.13;1.90;;;;;;;27.98;39.50;101923.06;5050528;28;20121;-72
2022/10/27 11:05:17;;;;;;;3.38;1.50;;;;;;;28.71;37.66;101921.72;5051521;28;20021;-72
2022/10/27 11:07:46;;;;;;;7.57;1.45;;;;;;;28.46;38.31;101914.47;5051499;28;20071;-72
2022/10/27 11:10:15;;;;;;;3.10;1.73;;;;;;;28.65;37.64;101915.94;5050941;28;20492;-72
2022/10/27 11:12:52;;;;;;;7.03;1.55;;;;;;;28.38;38.10;101903.41;5051314;28;20028;-72
2022/10/27 11:15:39;;;;;;;4.10;1.55;;;;;;;27.98;38.91;101916.84;5052347;28;20424;-72
2022/10/27 11:18:57;;;;;;;4.05;1.50;;;;;;;28.56;38.01;101912.88;5052061;28;20071;-72
2022/10/27 11:21:59;;;;;;;3.38;1.85;;;;;;;28.66;38.11;101907.75;5012184;28;20060;-72
2022/10/27 11:24:24;;;;;;;4.70;1.20;;;;;;;28.75;37.65;101907.09;5063662;28;20428;-72
2022/10/27 11:27:00;;;;;;;4.57;1.48;;;;;;;28.23;38.33;101899.94;5051140;28;20040;-72
2022/10/27 11:29:57;;;;;;;4.13;1.40;;;;;;;27.71;39.94;101899.78;5051046;28;20027;-72
2022/10/27 11:32:48;;;;;;;5.45;1.45;;;;;;;28.56;38.23;101902.13;5051492;28;20036;-73